FW6602 Weather Reports


Display with metric or nautical units.
time (UTC)temp
F
wind
direction
speed
MPH
gust
MPH
rain 1hr
in
rain 24hr
in
rain mn
in
humidity
%
barometer
mb
20260507024545 49 0 0.0 0.0 0.00 0.00 0.00 88 1022.0
20260507023040 50 0 0.0 0.0 0.00 0.00 0.00 86 1022.0
20260507021550 51 0 0.0 0.0 0.00 0.00 0.00 84 1021.8
20260507020040 52 0 0.0 0.0 0.00 0.00 0.00 82 1021.8
20260507014537 52 0 0.0 0.0 0.00 0.00 0.00 81 1021.7
20260507013040 53 0 0.0 2.0 0.00 0.00 0.00 78 1021.7
20260507011540 54 0 0.0 2.0 0.00 0.00 0.00 75 1021.7
20260507010045 55 227 0.0 1.0 0.00 0.00 0.00 74 1021.7
20260507004540 55 271 0.0 2.0 0.00 0.00 0.00 73 1021.6
20260507003040 56 0 0.0 2.0 0.00 0.00 0.00 71 1021.6
20260507001542 57 52 0.0 2.0 0.00 0.00 0.00 70 1021.5
20260507000042 58 211 0.0 5.0 0.00 0.00 0.00 67 1021.4
20260506234550 59 0 0.0 6.0 0.00 0.00 0.00 67 1021.3
20260506233038 59 321 0.0 5.0 0.00 0.00 0.00 65 1021.3
20260506231539 59 314 0.0 4.0 0.00 0.00 0.00 65 1021.1
20260506230046 60 248 1.0 3.0 0.00 0.00 0.00 64 1021.2
20260506224544 60 93 0.0 3.0 0.00 0.00 0.00 61 1021.1
20260506223047 59 329 1.0 8.0 0.00 0.00 0.00 60 1021.2
20260506221539 61 17 1.0 4.0 0.00 0.00 0.00 49 1021.1
20260506220038 60 17 1.0 7.0 0.00 0.00 0.00 57 1021.3
20260506214540 61 88 1.0 4.0 0.00 0.00 0.00 58 1021.3
20260506213042 61 30 1.0 4.0 0.00 0.00 0.00 56 1021.4
20260506211543 60 246 0.0 5.0 0.00 0.00 0.00 62 1021.7
20260506210041 60 77 0.0 3.0 0.00 0.00 0.00 58 1021.5
20260506204548 61 153 1.0 5.0 0.00 0.00 0.00 61 1021.7
20260506203037 60 11 1.0 7.0 0.00 0.00 0.00 64 1021.7
20260506201541 59 202 1.0 4.0 0.00 0.00 0.00 62 1021.7
20260506200057 59 300 0.0 3.0 0.00 0.00 0.00 64 1021.8
20260506194548 60 71 0.0 3.0 0.00 0.00 0.00 59 1021.8
20260506193038 58 351 1.0 4.0 0.00 0.00 0.00 63 1021.7
20260506191538 59 350 3.0 9.0 0.00 0.00 0.00 55 1021.8
20260506190039 59 335 1.0 6.0 0.00 0.00 0.00 51 1021.8
20260506184541 58 329 1.0 6.0 0.00 0.00 0.00 57 1021.8
20260506183057 57 343 1.0 5.0 0.00 0.00 0.00 55 1021.9
20260506181544 56 322 2.0 5.0 0.00 0.00 0.00 53 1021.8
20260506180051 57 313 2.0 8.0 0.00 0.00 0.00 53 1021.9
20260506174538 57 344 1.0 3.0 0.00 0.01 0.00 56 1021.6
20260506173037 55 298 2.0 5.0 0.00 0.01 0.00 59 1021.3
20260506171546 55 338 1.0 4.0 0.00 0.01 0.00 57 1021.1
20260506170046 55 46 1.0 4.0 0.00 0.01 0.00 59 1021.0
20260506164547 54 350 1.0 4.0 0.00 0.02 0.00 61 1020.9
20260506163038 54 327 1.0 3.0 0.00 0.02 0.00 57 1020.9
20260506161551 54 334 0.0 2.0 0.00 0.02 0.00 55 1020.7
20260506160044 54 60 0.0 2.0 0.00 0.02 0.00 52 1020.6
20260506154545 52 22 0.0 7.0 0.00 0.09 0.00 51 1020.5
20260506153040 51 49 2.0 7.0 0.00 0.09 0.00 53 1020.5
20260506151558 49 322 0.0 3.0 0.00 0.09 0.00 61 1020.3
20260506150039 47 0 0.0 2.0 0.00 0.09 0.00 65 1020.1
20260506144538 45 0 0.0 1.0 0.00 0.19 0.00 70 1020.1
20260506143047 43 0 0.0 1.0 0.00 0.19 0.00 74 1019.9
20260506141550 40 0 0.0 0.0 0.00 0.19 0.00 78 1020.0
20260506140040 37 0 0.0 0.0 0.00 0.19 0.00 85 1019.7
20260506134538 37 0 0.0 0.0 0.00 0.27 0.00 85 1019.6
20260506133048 37 0 0.0 0.0 0.00 0.27 0.00 85 1019.3
20260506131544 35 0 0.0 1.0 0.00 0.27 0.00 89 1019.2
20260506130048 34 0 0.0 0.0 0.00 0.27 0.00 91 1019.1
20260506124540 34 0 0.0 0.0 0.00 0.27 0.00 91 1018.9
20260506123049 35 0 0.0 0.0 0.00 0.27 0.00 90 1018.6
20260506121543 36 0 0.0 1.0 0.00 0.27 0.00 89 1018.8
20260506120044 36 0 0.0 4.0 0.00 0.27 0.00 90 1018.9
20260506114545 35 0 0.0 0.0 0.00 0.28 0.00 91 1018.6
20260506113041 36 0 0.0 1.0 0.00 0.28 0.00 93 1018.5
20260506111541 35 0 0.0 1.0 0.00 0.28 0.00 98 1018.4
20260506110046 34 0 0.0 2.0 0.00 0.28 0.00 98 1018.4
20260506104544 34 0 0.0 0.0 0.00 0.28 0.00 98 1018.2
20260506103043 33 0 0.0 0.0 0.00 0.28 0.00 98 1018.1
20260506101552 33 0 0.0 0.0 0.00 0.28 0.00 98 1018.1
20260506100039 32 0 0.0 0.0 0.00 0.28 0.00 98 1018.3
20260506094547 32 0 0.0 0.0 0.00 0.28 0.00 98 1018.3
20260506093037 32 0 0.0 0.0 0.00 0.28 0.00 98 1018.3
20260506091541 32 0 0.0 0.0 0.00 0.28 0.00 98 1018.3
20260506090042 32 0 0.0 0.0 0.00 0.28 0.00 98 1018.4
20260506084547 32 0 0.0 0.0 0.00 0.28 0.00 98 1018.4
20260506083041 33 0 0.0 0.0 0.00 0.28 0.00 98 1018.6
20260506081541 33 0 0.0 0.0 0.00 0.28 0.00 98 1018.6
20260506073046 35 0 0.0 0.0 0.00 0.29 0.00 98 1018.8
20260506071557 35 0 0.0 1.0 0.00 0.29 0.00 98 1018.8
20260506061540 36 0 0.0 0.0 0.00 0.31 0.29 98 1018.0
20260506044539 37 0 0.0 0.0 0.00 0.33 0.29 98 1017.6
20260506043040 37 0 0.0 0.0 0.00 0.33 0.29 98 1017.5
20260506041557 37 0 0.0 0.0 0.00 0.33 0.29 98 1017.5
20260506040039 37 0 0.0 0.0 0.00 0.33 0.29 98 1017.1
20260506034544 37 0 0.0 1.0 0.00 0.34 0.29 98 1017.2
20260506033042 37 0 0.0 1.0 0.00 0.34 0.29 98 1016.9
20260506031542 37 0 0.0 0.0 0.00 0.34 0.29 98 1016.7
20260506030042 37 0 0.0 1.0 0.00 0.34 0.29 97 1016.5